»·PEaware :: SWA6565 KSAN-KSMF

SWA6565 :: KSAN-KSMF

FLIGHT INFORMATION

Flight Status: Arrived
Operator:
Southwest Airlines
More flights by this operator :: More flights under this callsign
Pilot: Daniel W. (24238)
Aircraft: BOEING 737-700
(B737)
More flights by this aircraft type
Origin: KSAN San Diego Intl-Lindbergh
United States
Destination: KSMF Sacramento Intl
United States
More flights between these airports :: More routes between these airports
Route: PADRZ2 EHF NURAY SUUTR2
File this flight plan on PilotEdge
Remarks: PBN / A1D1O1S2T1 NAV / RNVD1E1A1 RNP10 DOF / 200213 REG / N7854B EET / KZOA0036 CODE / AAA5FF PER / C
Altitude:
(Current/Filed)
38,000ft
Speed:
(Current/Filed)
441kts
Departed: 12-Feb-20 07:58 PM
Arrived: 12-Feb-20 09:12 PM
Distance/Time
Traveled:
417nm/1:14
Distance/Time
To Go:
Arrived

Flight Plot

Page will automatically refresh every two minutes.

Flight plan parsing failed; only flown route is shown


Map Options




Map Legend


Flown Route
Filed Route
Departure Airport
Arrival Airport
Navaid (VOR, NDB)
Fix

Horizontal Profiles

Position Reports

Time Latitude Longitude Heading Altitude Ground
Speed
12-Feb-20 19:20 32.732521 -117.195487 312 23ft 0kts
12-Feb-20 19:21 32.732521 -117.195487 312 23ft 0kts
12-Feb-20 19:22 32.732521 -117.195487 312 23ft 0kts
12-Feb-20 19:23 32.732521 -117.195487 312 23ft 0kts
12-Feb-20 19:24 32.732521 -117.195487 312 23ft 0kts
12-Feb-20 19:25 32.732521 -117.195487 312 23ft 0kts
12-Feb-20 19:26 32.732521 -117.195487 312 23ft 0kts
12-Feb-20 19:27 32.732521 -117.195487 312 23ft 0kts
12-Feb-20 19:28 32.732521 -117.195487 312 23ft 0kts
12-Feb-20 19:29 32.732521 -117.195487 312 23ft 0kts
12-Feb-20 19:30 32.732521 -117.195487 312 23ft 0kts
12-Feb-20 19:31 32.732521 -117.195487 312 23ft 0kts
12-Feb-20 19:32 32.732521 -117.195487 312 23ft 0kts
12-Feb-20 19:33 32.732521 -117.195487 312 23ft 0kts
12-Feb-20 19:34 32.732521 -117.195487 312 23ft 0kts
12-Feb-20 19:35 32.732521 -117.195487 312 23ft 0kts
12-Feb-20 19:36 32.732521 -117.195487 312 23ft 0kts
12-Feb-20 19:37 32.732521 -117.195487 312 23ft 0kts
12-Feb-20 19:38 32.732521 -117.195487 312 23ft 0kts
12-Feb-20 19:39 32.732521 -117.195487 312 23ft 0kts
12-Feb-20 19:40 32.732521 -117.195487 312 23ft 0kts
12-Feb-20 19:41 32.732521 -117.195487 312 23ft 0kts
12-Feb-20 19:42 32.732521 -117.195487 312 23ft 0kts
12-Feb-20 19:43 32.732521 -117.195487 312 23ft 0kts
12-Feb-20 19:44 32.732521 -117.195487 312 23ft 0kts
12-Feb-20 19:45 32.732521 -117.195487 312 23ft 0kts
12-Feb-20 19:46 32.732117 -117.195020 336 23ft 2kts
12-Feb-20 19:47 32.731995 -117.194977 357 23ft 0kts
12-Feb-20 19:48 32.731995 -117.194977 357 23ft 0kts
12-Feb-20 19:49 32.732158 -117.194935 23 23ft 9kts
12-Feb-20 19:50 32.732928 -117.194428 29 23ft 0kts
12-Feb-20 19:51 32.732928 -117.194428 29 23ft 0kts
12-Feb-20 19:52 32.733477 -117.193839 79 23ft 13kts
12-Feb-20 19:53 32.732035 -117.187657 106 23ft 25kts
12-Feb-20 19:54 32.730226 -117.180157 106 23ft 22kts
12-Feb-20 19:55 32.729551 -117.176649 71 23ft 0kts
12-Feb-20 19:56 32.730406 -117.176644 286 23ft 28kts
12-Feb-20 19:57 32.741726 -117.217475 299 1149ft 183kts
12-Feb-20 19:58 32.775575 -117.277168 304 3445ft 250kts
12-Feb-20 19:59 32.818628 -117.348706 308 6858ft 274kts
12-Feb-20 20:00 32.866150 -117.421457 308 10934ft 281kts
12-Feb-20 20:01 32.919060 -117.503731 308 13721ft 342kts
12-Feb-20 20:02 32.978204 -117.595710 308 15043ft 351kts
12-Feb-20 20:03 33.038385 -117.689911 307 18081ft 363kts
12-Feb-20 20:04 33.111228 -117.777986 320 21235ft 383kts
12-Feb-20 20:05 33.194176 -117.862218 319 23958ft 401kts
12-Feb-20 20:06 33.282000 -117.948032 320 26394ft 413kts
12-Feb-20 20:07 33.372124 -118.035697 320 28515ft 422kts
12-Feb-20 20:08 33.463975 -118.125866 320 30253ft 432kts
12-Feb-20 20:09 33.552856 -118.212948 323 32206ft 426kts
12-Feb-20 20:10 33.656091 -118.280346 334 34105ft 421kts
12-Feb-20 20:11 33.762805 -118.339182 334 35485ft 422kts
12-Feb-20 20:12 33.871473 -118.393715 335 36780ft 423kts
12-Feb-20 20:13 33.980616 -118.447891 339 37917ft 425kts
12-Feb-20 20:14 34.097880 -118.474328 349 38137ft 430kts
12-Feb-20 20:15 34.216142 -118.492666 350 38130ft 427kts
12-Feb-20 20:16 34.334057 -118.510892 350 38131ft 427kts
12-Feb-20 20:17 34.451894 -118.529026 350 38155ft 427kts
12-Feb-20 20:18 34.570029 -118.547325 350 38154ft 427kts
12-Feb-20 20:19 34.687650 -118.565605 350 38159ft 426kts
12-Feb-20 20:20 34.805455 -118.583926 350 38161ft 426kts
12-Feb-20 20:21 34.923077 -118.602348 350 38156ft 426kts
12-Feb-20 20:22 35.034971 -118.642602 325 38153ft 421kts
12-Feb-20 20:23 35.124381 -118.729733 320 38146ft 420kts
12-Feb-20 20:24 35.211511 -118.818539 320 38125ft 420kts
12-Feb-20 20:25 35.301721 -118.909824 320 38101ft 420kts
12-Feb-20 20:26 35.391464 -119.001692 320 38087ft 420kts
12-Feb-20 20:27 35.482768 -119.090877 327 38090ft 421kts
12-Feb-20 20:28 35.588475 -119.152878 334 38091ft 422kts
12-Feb-20 20:29 35.695963 -119.210949 335 38090ft 421kts
12-Feb-20 20:30 35.803545 -119.269098 335 38090ft 422kts
12-Feb-20 20:31 35.910798 -119.326834 335 38094ft 421kts
12-Feb-20 20:32 36.018124 -119.385024 335 38097ft 421kts
12-Feb-20 20:33 36.125419 -119.443406 335 38100ft 421kts
12-Feb-20 20:34 36.232566 -119.501889 335 38099ft 421kts
12-Feb-20 20:35 36.339919 -119.560495 335 38100ft 421kts
12-Feb-20 20:37 36.446862 -119.619269 335 38101ft 421kts
12-Feb-20 20:38 36.553961 -119.678372 335 38105ft 421kts
12-Feb-20 20:39 36.656117 -119.748329 327 38106ft 420kts
12-Feb-20 20:40 36.754968 -119.826268 327 38107ft 420kts
12-Feb-20 20:41 36.853627 -119.904055 327 38108ft 420kts
12-Feb-20 20:42 36.952754 -119.981924 327 38103ft 420kts
12-Feb-20 20:43 37.052199 -120.060255 327 36088ft 423kts
12-Feb-20 20:44 37.151793 -120.139397 327 32772ft 425kts
12-Feb-20 20:45 37.250357 -120.218024 327 30103ft 411kts
12-Feb-20 20:46 37.344802 -120.293357 327 27667ft 399kts
12-Feb-20 20:47 37.436835 -120.367215 328 25223ft 386kts
12-Feb-20 20:48 37.520939 -120.444390 321 23277ft 367kts
12-Feb-20 20:49 37.599798 -120.524244 322 21082ft 358kts
12-Feb-20 20:50 37.677736 -120.602259 323 19953ft 362kts
12-Feb-20 20:51 37.755470 -120.680496 323 19006ft 354kts
12-Feb-20 20:52 37.832890 -120.758619 323 19004ft 356kts
12-Feb-20 20:53 37.910373 -120.836880 322 19004ft 356kts
12-Feb-20 20:54 37.987676 -120.915641 322 19004ft 356kts
12-Feb-20 20:55 38.063123 -120.992670 322 19006ft 357kts
12-Feb-20 20:55 38.120360 -121.070959 311 17828ft 358kts
12-Feb-20 20:57 38.192954 -121.179016 312 15835ft 331kts
12-Feb-20 20:58 38.253922 -121.261508 317 14279ft 309kts
12-Feb-20 20:58 38.303600 -121.323476 317 13057ft 292kts
12-Feb-20 20:59 38.359428 -121.394367 317 11678ft 276kts
12-Feb-20 21:01 38.418876 -121.470196 317 10209ft 275kts
12-Feb-20 21:01 38.463876 -121.527623 317 9096ft 275kts
12-Feb-20 21:02 38.521875 -121.589212 324 7775ft 268kts
12-Feb-20 21:03 38.579787 -121.647511 323 6485ft 261kts
12-Feb-20 21:04 38.642025 -121.686073 354 5237ft 243kts
12-Feb-20 21:05 38.707579 -121.693855 355 4000ft 233kts
12-Feb-20 21:06 38.772619 -121.692862 3 2531ft 233kts
12-Feb-20 21:07 38.803708 -121.641845 102 1873ft 184kts
12-Feb-20 21:08 38.777103 -121.600273 169 1581ft 145kts
12-Feb-20 21:09 38.738876 -121.600552 178 661ft 129kts
12-Feb-20 21:10 38.704066 -121.601170 180 38ft 117kts
12-Feb-20 21:11 38.697035 -121.598977 90 36ft 4kts
12-Feb-20 21:12 38.695120 -121.596007 176 36ft 14kts
12-Feb-20 21:13 38.695186 -121.593469 14 36ft 0kts
12-Feb-20 21:14 38.695186 -121.593469 14 36ft 0kts
12-Feb-20 21:15 38.695186 -121.593469 14 36ft 0kts
12-Feb-20 21:16 38.695186 -121.593469 14 36ft 0kts
12-Feb-20 21:17 38.695186 -121.593469 14 36ft 0kts
12-Feb-20 21:18 38.695186 -121.593469 14 36ft 0kts
12-Feb-20 21:19 38.695186 -121.593469 14 36ft 0kts
12-Feb-20 21:20 38.695186 -121.593469 14 36ft 0kts
12-Feb-20 21:21 38.695186 -121.593469 14 36ft 0kts
12-Feb-20 21:22 38.695186 -121.593469 14 36ft 0kts
12-Feb-20 21:23 38.695186 -121.593469 14 36ft 0kts

Navigation Log

Ident Type
Flight plan parsing failed, navigation log unavailable